sensor_id;sensor_type;location;lat;lon;timestamp;pressure;altitude;pressure_sealevel;temperature;humidity
62051;BME280;48008;51.204;6.766;2022-11-03T00:01:58;101226.44;;;10.49;71.46
62051;BME280;48008;51.204;6.766;2022-11-03T00:04:25;101233.00;;;10.55;71.40
62051;BME280;48008;51.204;6.766;2022-11-03T00:06:53;101230.63;;;10.62;71.04
62051;BME280;48008;51.204;6.766;2022-11-03T00:09:21;101224.31;;;10.72;70.75
62051;BME280;48008;51.204;6.766;2022-11-03T00:11:50;101220.16;;;10.70;71.17
62051;BME280;48008;51.204;6.766;2022-11-03T00:14:17;101213.97;;;10.69;71.43
62051;BME280;48008;51.204;6.766;2022-11-03T00:16:44;101220.00;;;10.71;70.96
62051;BME280;48008;51.204;6.766;2022-11-03T00:19:11;101213.84;;;10.71;71.34
62051;BME280;48008;51.204;6.766;2022-11-03T00:21:41;101203.78;;;10.74;71.17
62051;BME280;48008;51.204;6.766;2022-11-03T00:24:09;101209.81;;;10.67;71.53
62051;BME280;48008;51.204;6.766;2022-11-03T00:26:35;101209.13;;;10.65;72.30
62051;BME280;48008;51.204;6.766;2022-11-03T00:29:08;101214.56;;;10.63;72.08
62051;BME280;48008;51.204;6.766;2022-11-03T00:31:37;101203.53;;;10.58;72.54
62051;BME280;48008;51.204;6.766;2022-11-03T00:34:04;101207.84;;;10.69;71.82
62051;BME280;48008;51.204;6.766;2022-11-03T00:36:36;101193.94;;;10.57;72.37
62051;BME280;48008;51.204;6.766;2022-11-03T00:39:04;101193.63;;;10.60;72.56
62051;BME280;48008;51.204;6.766;2022-11-03T00:41:31;101186.91;;;10.66;72.66
62051;BME280;48008;51.204;6.766;2022-11-03T00:43:58;101187.34;;;10.61;72.92
62051;BME280;48008;51.204;6.766;2022-11-03T00:46:25;101190.56;;;10.55;73.32
62051;BME280;48008;51.204;6.766;2022-11-03T00:48:52;101184.69;;;10.61;73.47
62051;BME280;48008;51.204;6.766;2022-11-03T00:51:24;101186.63;;;10.69;73.11
62051;BME280;48008;51.204;6.766;2022-11-03T00:53:56;101182.13;;;10.69;73.02
62051;BME280;48008;51.204;6.766;2022-11-03T00:56:28;101189.16;;;10.61;73.41
62051;BME280;48008;51.204;6.766;2022-11-03T00:58:56;101178.97;;;10.56;73.68
62051;BME280;48008;51.204;6.766;2022-11-03T01:01:26;101179.50;;;10.69;73.54
62051;BME280;48008;51.204;6.766;2022-11-03T01:03:55;101176.19;;;10.57;73.75
62051;BME280;48008;51.204;6.766;2022-11-03T01:06:45;101179.09;;;10.64;74.04
62051;BME280;48008;51.204;6.766;2022-11-03T01:09:37;101172.41;;;10.60;74.22
62051;BME280;48008;51.204;6.766;2022-11-03T01:12:10;101170.44;;;10.62;74.26
62051;BME280;48008;51.204;6.766;2022-11-03T01:14:41;101174.63;;;10.65;74.28
62051;BME280;48008;51.204;6.766;2022-11-03T01:17:11;101174.22;;;10.60;74.14
62051;BME280;48008;51.204;6.766;2022-11-03T01:19:38;101171.56;;;10.60;74.85
62051;BME280;48008;51.204;6.766;2022-11-03T01:22:05;101169.50;;;10.53;74.87
62051;BME280;48008;51.204;6.766;2022-11-03T01:24:34;101161.38;;;10.55;74.93
62051;BME280;48008;51.204;6.766;2022-11-03T01:27:01;101154.81;;;10.49;75.14
62051;BME280;48008;51.204;6.766;2022-11-03T01:29:27;101144.66;;;10.45;75.43
62051;BME280;48008;51.204;6.766;2022-11-03T01:31:54;101136.44;;;10.38;76.11
62051;BME280;48008;51.204;6.766;2022-11-03T01:34:21;101148.59;;;10.41;75.94
62051;BME280;48008;51.204;6.766;2022-11-03T01:36:48;101143.13;;;10.42;76.24
62051;BME280;48008;51.204;6.766;2022-11-03T01:39:16;101138.34;;;10.46;76.48
62051;BME280;48008;51.204;6.766;2022-11-03T01:41:45;101137.41;;;10.47;76.04
62051;BME280;48008;51.204;6.766;2022-11-03T01:46:56;101123.88;;;10.40;76.70
62051;BME280;48008;51.204;6.766;2022-11-03T01:49:32;101122.63;;;10.44;76.65
62051;BME280;48008;51.204;6.766;2022-11-03T01:52:09;101116.88;;;10.49;76.48
62051;BME280;48008;51.204;6.766;2022-11-03T01:54:37;101109.72;;;10.49;76.70
62051;BME280;48008;51.204;6.766;2022-11-03T01:57:10;101106.84;;;10.43;76.88
62051;BME280;48008;51.204;6.766;2022-11-03T01:59:38;101100.69;;;10.42;77.18
62051;BME280;48008;51.204;6.766;2022-11-03T02:02:05;101103.34;;;10.42;77.13
62051;BME280;48008;51.204;6.766;2022-11-03T02:04:33;101093.59;;;10.33;77.70
62051;BME280;48008;51.204;6.766;2022-11-03T02:07:09;101088.56;;;10.40;77.27
62051;BME280;48008;51.204;6.766;2022-11-03T02:09:37;101091.75;;;10.43;77.53
62051;BME280;48008;51.204;6.766;2022-11-03T02:12:05;101087.81;;;10.47;77.49
62051;BME280;48008;51.204;6.766;2022-11-03T02:14:35;101078.34;;;10.45;77.42
62051;BME280;48008;51.204;6.766;2022-11-03T02:17:07;101078.38;;;10.35;78.13
62051;BME280;48008;51.204;6.766;2022-11-03T02:19:46;101078.38;;;10.35;78.16
62051;BME280;48008;51.204;6.766;2022-11-03T02:22:40;101080.34;;;10.33;78.39
62051;BME280;48008;51.204;6.766;2022-11-03T02:25:38;101074.47;;;10.39;78.49
62051;BME280;48008;51.204;6.766;2022-11-03T02:28:05;101063.88;;;10.39;78.50
62051;BME280;48008;51.204;6.766;2022-11-03T02:30:38;101059.09;;;10.43;78.44
62051;BME280;48008;51.204;6.766;2022-11-03T02:33:15;101054.47;;;10.45;78.53
62051;BME280;48008;51.204;6.766;2022-11-03T02:35:53;101054.22;;;10.38;78.94
62051;BME280;48008;51.204;6.766;2022-11-03T02:38:24;101044.91;;;10.34;79.02
62051;BME280;48008;51.204;6.766;2022-11-03T02:40:57;101042.06;;;10.45;79.15
62051;BME280;48008;51.204;6.766;2022-11-03T02:43:27;101039.69;;;10.42;79.11
62051;BME280;48008;51.204;6.766;2022-11-03T02:45:54;101026.28;;;10.44;79.35
62051;BME280;48008;51.204;6.766;2022-11-03T02:48:22;101024.91;;;10.40;79.21
62051;BME280;48008;51.204;6.766;2022-11-03T02:50:48;101023.09;;;10.40;79.54
62051;BME280;48008;51.204;6.766;2022-11-03T02:53:15;101009.94;;;10.48;79.27
62051;BME280;48008;51.204;6.766;2022-11-03T02:55:50;101019.41;;;10.51;79.34
62051;BME280;48008;51.204;6.766;2022-11-03T02:58:46;101007.56;;;10.45;79.60
62051;BME280;48008;51.204;6.766;2022-11-03T03:01:38;101003.63;;;10.49;79.73
62051;BME280;48008;51.204;6.766;2022-11-03T03:04:27;101005.19;;;10.52;79.59
62051;BME280;48008;51.204;6.766;2022-11-03T03:06:59;101006.47;;;10.48;80.18
62051;BME280;48008;51.204;6.766;2022-11-03T03:09:30;101001.72;;;10.42;80.48
62051;BME280;48008;51.204;6.766;2022-11-03T03:12:02;100994.16;;;10.47;80.66
62051;BME280;48008;51.204;6.766;2022-11-03T03:14:34;100996.97;;;10.45;80.72
62051;BME280;48008;51.204;6.766;2022-11-03T03:17:08;100989.94;;;10.54;80.13
62051;BME280;48008;51.204;6.766;2022-11-03T03:19:59;100981.16;;;10.53;80.63
62051;BME280;48008;51.204;6.766;2022-11-03T03:22:31;100986.63;;;10.42;80.87
62051;BME280;48008;51.204;6.766;2022-11-03T03:25:09;100972.13;;;10.46;80.98
62051;BME280;48008;51.204;6.766;2022-11-03T03:27:44;100975.34;;;10.40;81.48
62051;BME280;48008;51.204;6.766;2022-11-03T03:30:12;100971.44;;;10.44;81.35
62051;BME280;48008;51.204;6.766;2022-11-03T03:32:43;100978.84;;;10.41;81.67
62051;BME280;48008;51.204;6.766;2022-11-03T03:35:13;100971.25;;;10.46;81.67
62051;BME280;48008;51.204;6.766;2022-11-03T03:37:46;100967.34;;;10.50;81.67
62051;BME280;48008;51.204;6.766;2022-11-03T03:40:17;100963.28;;;10.55;81.50
62051;BME280;48008;51.204;6.766;2022-11-03T03:42:47;100963.03;;;10.49;81.79
62051;BME280;48008;51.204;6.766;2022-11-03T03:45:15;100963.13;;;10.57;81.73
62051;BME280;48008;51.204;6.766;2022-11-03T03:47:43;100952.06;;;10.62;81.57
62051;BME280;48008;51.204;6.766;2022-11-03T03:50:09;100950.94;;;10.64;81.53
62051;BME280;48008;51.204;6.766;2022-11-03T03:52:36;100948.28;;;10.64;81.50
62051;BME280;48008;51.204;6.766;2022-11-03T03:55:06;100943.53;;;10.68;80.90
62051;BME280;48008;51.204;6.766;2022-11-03T03:57:37;100942.53;;;10.69;81.36
62051;BME280;48008;51.204;6.766;2022-11-03T04:00:04;100947.28;;;10.65;81.53
62051;BME280;48008;51.204;6.766;2022-11-03T04:02:48;100938.56;;;10.73;81.47
62051;BME280;48008;51.204;6.766;2022-11-03T04:05:15;100932.16;;;10.75;81.54
62051;BME280;48008;51.204;6.766;2022-11-03T04:07:42;100926.88;;;10.66;81.66
62051;BME280;48008;51.204;6.766;2022-11-03T04:10:19;100931.38;;;10.65;81.81
62051;BME280;48008;51.204;6.766;2022-11-03T04:12:46;100930.06;;;10.69;82.01
62051;BME280;48008;51.204;6.766;2022-11-03T04:15:49;100923.66;;;10.72;81.73
62051;BME280;48008;51.204;6.766;2022-11-03T04:18:20;100916.28;;;10.66;81.96
62051;BME280;48008;51.204;6.766;2022-11-03T04:21:11;100927.66;;;10.76;81.57
62051;BME280;48008;51.204;6.766;2022-11-03T04:23:58;100925.63;;;10.70;81.76
62051;BME280;48008;51.204;6.766;2022-11-03T04:26:26;100925.47;;;10.71;82.04
62051;BME280;48008;51.204;6.766;2022-11-03T04:28:54;100920.00;;;10.73;82.00
62051;BME280;48008;51.204;6.766;2022-11-03T04:31:21;100918.34;;;10.72;81.92
62051;BME280;48008;51.204;6.766;2022-11-03T04:33:48;100921.81;;;10.72;82.04
62051;BME280;48008;51.204;6.766;2022-11-03T04:36:18;100917.56;;;10.62;82.35
62051;BME280;48008;51.204;6.766;2022-11-03T04:38:46;100913.81;;;10.64;82.58
62051;BME280;48008;51.204;6.766;2022-11-03T04:41:20;100909.31;;;10.65;82.43
62051;BME280;48008;51.204;6.766;2022-11-03T04:43:49;100910.69;;;10.69;82.13
62051;BME280;48008;51.204;6.766;2022-11-03T04:46:27;100900.22;;;10.67;82.24
62051;BME280;48008;51.204;6.766;2022-11-03T04:48:59;100899.69;;;10.64;82.43
62051;BME280;48008;51.204;6.766;2022-11-03T04:51:30;100894.63;;;10.70;82.53
62051;BME280;48008;51.204;6.766;2022-11-03T04:54:12;100897.13;;;10.72;82.27
62051;BME280;48008;51.204;6.766;2022-11-03T04:56:39;100894.75;;;10.69;82.46
62051;BME280;48008;51.204;6.766;2022-11-03T04:59:10;100893.16;;;10.76;82.44
62051;BME280;48008;51.204;6.766;2022-11-03T05:01:38;100893.94;;;10.68;82.70
62051;BME280;48008;51.204;6.766;2022-11-03T05:04:14;100886.28;;;10.65;82.76
62051;BME280;48008;51.204;6.766;2022-11-03T05:06:49;100883.69;;;10.55;83.46
62051;BME280;48008;51.204;6.766;2022-11-03T05:09:22;100876.41;;;10.57;83.22
62051;BME280;48008;51.204;6.766;2022-11-03T05:11:49;100870.66;;;10.62;83.48
62051;BME280;48008;51.204;6.766;2022-11-03T05:14:31;100868.84;;;10.63;83.34
62051;BME280;48008;51.204;6.766;2022-11-03T05:17:00;100862.16;;;10.59;83.56
62051;BME280;48008;51.204;6.766;2022-11-03T05:19:33;100857.75;;;10.67;83.65
62051;BME280;48008;51.204;6.766;2022-11-03T05:22:02;100849.59;;;10.61;83.63
62051;BME280;48008;51.204;6.766;2022-11-03T05:24:31;100850.56;;;10.60;83.62
62051;BME280;48008;51.204;6.766;2022-11-03T05:26:58;100847.16;;;10.67;83.43
62051;BME280;48008;51.204;6.766;2022-11-03T05:29:31;100841.94;;;10.75;83.22
62051;BME280;48008;51.204;6.766;2022-11-03T05:32:00;100830.56;;;10.65;83.55
62051;BME280;48008;51.204;6.766;2022-11-03T05:34:45;100837.31;;;10.60;83.59
62051;BME280;48008;51.204;6.766;2022-11-03T05:37:30;100842.00;;;10.66;83.80
62051;BME280;48008;51.204;6.766;2022-11-03T05:40:02;100838.91;;;10.70;83.30
62051;BME280;48008;51.204;6.766;2022-11-03T05:42:34;100818.66;;;10.69;83.27
62051;BME280;48008;51.204;6.766;2022-11-03T05:45:11;100821.53;;;10.76;83.01
62051;BME280;48008;51.204;6.766;2022-11-03T05:47:41;100824.66;;;10.71;82.54
62051;BME280;48008;51.204;6.766;2022-11-03T05:50:26;100810.00;;;10.67;83.16
62051;BME280;48008;51.204;6.766;2022-11-03T05:53:03;100817.66;;;10.70;82.96
62051;BME280;48008;51.204;6.766;2022-11-03T05:55:36;100815.31;;;10.67;83.05
62051;BME280;48008;51.204;6.766;2022-11-03T05:58:14;100815.63;;;10.64;83.71
62051;BME280;48008;51.204;6.766;2022-11-03T06:00:45;100805.47;;;10.60;83.53
62051;BME280;48008;51.204;6.766;2022-11-03T06:03:16;100811.06;;;10.74;83.27
62051;BME280;48008;51.204;6.766;2022-11-03T06:05:45;100797.41;;;10.69;83.17
62051;BME280;48008;51.204;6.766;2022-11-03T06:08:17;100800.59;;;10.73;83.21
62051;BME280;48008;51.204;6.766;2022-11-03T06:10:49;100796.75;;;10.67;83.68
62051;BME280;48008;51.204;6.766;2022-11-03T06:13:24;100795.66;;;10.78;82.93
62051;BME280;48008;51.204;6.766;2022-11-03T06:15:57;100787.19;;;10.74;83.18
62051;BME280;48008;51.204;6.766;2022-11-03T06:18:29;100785.88;;;10.79;83.27
62051;BME280;48008;51.204;6.766;2022-11-03T06:21:03;100794.69;;;10.79;83.01
62051;BME280;48008;51.204;6.766;2022-11-03T06:23:32;100789.38;;;10.79;83.17
62051;BME280;48008;51.204;6.766;2022-11-03T06:26:01;100779.38;;;10.73;83.00
62051;BME280;48008;51.204;6.766;2022-11-03T06:28:32;100779.59;;;10.80;83.49
62051;BME280;48008;51.204;6.766;2022-11-03T06:31:00;100777.41;;;10.75;83.58
62051;BME280;48008;51.204;6.766;2022-11-03T06:33:29;100781.28;;;10.81;83.53
62051;BME280;48008;51.204;6.766;2022-11-03T06:36:02;100783.59;;;10.84;82.61
62051;BME280;48008;51.204;6.766;2022-11-03T06:38:33;100777.91;;;10.79;83.09
62051;BME280;48008;51.204;6.766;2022-11-03T06:41:00;100781.94;;;10.83;83.02
62051;BME280;48008;51.204;6.766;2022-11-03T06:43:38;100769.66;;;10.82;83.00
62051;BME280;48008;51.204;6.766;2022-11-03T06:46:18;100756.81;;;10.95;82.31
62051;BME280;48008;51.204;6.766;2022-11-03T06:48:45;100751.16;;;10.90;82.53
62051;BME280;48008;51.204;6.766;2022-11-03T06:51:17;100749.31;;;10.90;82.76
62051;BME280;48008;51.204;6.766;2022-11-03T06:53:45;100750.38;;;10.98;82.67
62051;BME280;48008;51.204;6.766;2022-11-03T06:56:20;100744.91;;;10.99;83.08
62051;BME280;48008;51.204;6.766;2022-11-03T06:58:48;100734.91;;;10.93;82.96
62051;BME280;48008;51.204;6.766;2022-11-03T07:01:18;100740.56;;;10.98;83.05
62051;BME280;48008;51.204;6.766;2022-11-03T07:03:48;100729.78;;;10.91;83.23
62051;BME280;48008;51.204;6.766;2022-11-03T07:06:21;100729.56;;;10.85;83.48
62051;BME280;48008;51.204;6.766;2022-11-03T07:08:52;100719.97;;;10.92;83.17
62051;BME280;48008;51.204;6.766;2022-11-03T07:11:23;100722.25;;;10.87;83.29
62051;BME280;48008;51.204;6.766;2022-11-03T07:13:52;100732.47;;;11.00;82.71
62051;BME280;48008;51.204;6.766;2022-11-03T07:16:40;100728.66;;;11.02;82.60
62051;BME280;48008;51.204;6.766;2022-11-03T07:19:13;100722.34;;;11.03;83.20
62051;BME280;48008;51.204;6.766;2022-11-03T07:21:45;100724.72;;;11.06;82.70
62051;BME280;48008;51.204;6.766;2022-11-03T07:24:18;100721.72;;;11.09;82.47
62051;BME280;48008;51.204;6.766;2022-11-03T07:26:53;100716.31;;;11.19;82.58
62051;BME280;48008;51.204;6.766;2022-11-03T07:29:25;100716.50;;;11.26;82.35
62051;BME280;48008;51.204;6.766;2022-11-03T07:31:53;100705.25;;;11.32;81.93
62051;BME280;48008;51.204;6.766;2022-11-03T07:34:26;100708.59;;;11.42;81.16
62051;BME280;48008;51.204;6.766;2022-11-03T07:36:56;100704.81;;;11.53;80.86
62051;BME280;48008;51.204;6.766;2022-11-03T07:39:32;100706.19;;;11.65;80.24
62051;BME280;48008;51.204;6.766;2022-11-03T07:42:10;100697.75;;;11.70;80.15
62051;BME280;48008;51.204;6.766;2022-11-03T07:44:39;100703.22;;;11.77;79.55
62051;BME280;48008;51.204;6.766;2022-11-03T07:47:11;100704.72;;;11.87;79.45
62051;BME280;48008;51.204;6.766;2022-11-03T07:49:39;100702.63;;;11.91;79.26
62051;BME280;48008;51.204;6.766;2022-11-03T07:52:11;100706.44;;;11.97;78.87
62051;BME280;48008;51.204;6.766;2022-11-03T07:54:39;100693.66;;;11.92;78.91
62051;BME280;48008;51.204;6.766;2022-11-03T07:57:23;100686.03;;;12.05;78.38
62051;BME280;48008;51.204;6.766;2022-11-03T07:59:55;100685.84;;;11.99;78.30
62051;BME280;48008;51.204;6.766;2022-11-03T08:02:35;100686.53;;;12.01;78.15
62051;BME280;48008;51.204;6.766;2022-11-03T08:05:03;100682.88;;;11.94;78.41
62051;BME280;48008;51.204;6.766;2022-11-03T08:07:30;100679.84;;;11.97;78.39
62051;BME280;48008;51.204;6.766;2022-11-03T08:09:57;100670.84;;;11.89;78.71
62051;BME280;48008;51.204;6.766;2022-11-03T08:12:24;100678.81;;;11.81;78.94
62051;BME280;48008;51.204;6.766;2022-11-03T08:14:51;100677.50;;;11.85;79.08
62051;BME280;48008;51.204;6.766;2022-11-03T08:17:18;100666.91;;;11.94;79.25
62051;BME280;48008;51.204;6.766;2022-11-03T08:19:45;100663.09;;;11.96;79.28
62051;BME280;48008;51.204;6.766;2022-11-03T08:22:12;100671.59;;;12.08;78.43
62051;BME280;48008;51.204;6.766;2022-11-03T08:24:38;100665.75;;;11.96;78.92
62051;BME280;48008;51.204;6.766;2022-11-03T08:27:05;100658.94;;;11.94;78.97
62051;BME280;48008;51.204;6.766;2022-11-03T08:29:32;100655.41;;;11.85;79.63
62051;BME280;48008;51.204;6.766;2022-11-03T08:31:58;100656.28;;;11.94;79.58
62051;BME280;48008;51.204;6.766;2022-11-03T08:34:25;100649.13;;;12.02;79.14
62051;BME280;48008;51.204;6.766;2022-11-03T08:36:52;100654.28;;;12.04;78.76
62051;BME280;48008;51.204;6.766;2022-11-03T08:39:18;100648.47;;;12.08;78.69
62051;BME280;48008;51.204;6.766;2022-11-03T08:41:45;100649.97;;;12.11;78.85
62051;BME280;48008;51.204;6.766;2022-11-03T08:44:12;100643.31;;;12.23;78.38
62051;BME280;48008;51.204;6.766;2022-11-03T08:46:39;100635.66;;;12.20;78.79
62051;BME280;48008;51.204;6.766;2022-11-03T08:49:05;100618.06;;;12.19;79.09
62051;BME280;48008;51.204;6.766;2022-11-03T08:51:32;100604.94;;;12.18;79.23
62051;BME280;48008;51.204;6.766;2022-11-03T08:53:59;100609.06;;;12.28;79.02
62051;BME280;48008;51.204;6.766;2022-11-03T08:56:25;100594.59;;;12.31;78.82
62051;BME280;48008;51.204;6.766;2022-11-03T08:58:52;100585.94;;;12.29;78.58
62051;BME280;48008;51.204;6.766;2022-11-03T09:01:18;100602.44;;;12.24;78.81
62051;BME280;48008;51.204;6.766;2022-11-03T09:03:45;100589.75;;;12.35;78.63
62051;BME280;48008;51.204;6.766;2022-11-03T09:06:12;100587.91;;;12.43;78.43
62051;BME280;48008;51.204;6.766;2022-11-03T09:08:38;100589.88;;;12.49;78.37
62051;BME280;48008;51.204;6.766;2022-11-03T09:11:25;100585.72;;;12.63;78.00
62051;BME280;48008;51.204;6.766;2022-11-03T09:13:53;100583.16;;;12.78;77.54
62051;BME280;48008;51.204;6.766;2022-11-03T09:16:19;100582.16;;;12.79;77.05
62051;BME280;48008;51.204;6.766;2022-11-03T09:18:46;100573.47;;;12.85;76.89
62051;BME280;48008;51.204;6.766;2022-11-03T09:21:13;100565.97;;;12.89;76.75
62051;BME280;48008;51.204;6.766;2022-11-03T09:23:40;100557.03;;;12.82;76.83
62051;BME280;48008;51.204;6.766;2022-11-03T09:26:07;100541.06;;;12.82;76.97
62051;BME280;48008;51.204;6.766;2022-11-03T09:28:33;100530.22;;;12.83;76.83
62051;BME280;48008;51.204;6.766;2022-11-03T09:31:00;100527.81;;;12.97;76.56
62051;BME280;48008;51.204;6.766;2022-11-03T09:33:27;100530.63;;;13.03;76.05
62051;BME280;48008;51.204;6.766;2022-11-03T09:35:54;100516.59;;;13.10;76.26
62051;BME280;48008;51.204;6.766;2022-11-03T09:38:20;100508.56;;;13.18;75.41
62051;BME280;48008;51.204;6.766;2022-11-03T09:40:47;100506.38;;;13.21;75.13
62051;BME280;48008;51.204;6.766;2022-11-03T09:43:19;100501.38;;;13.27;74.98
62051;BME280;48008;51.204;6.766;2022-11-03T09:45:46;100486.84;;;13.29;75.44
62051;BME280;48008;51.204;6.766;2022-11-03T09:48:13;100475.69;;;13.34;74.77
62051;BME280;48008;51.204;6.766;2022-11-03T09:50:40;100479.31;;;13.41;74.52
62051;BME280;48008;51.204;6.766;2022-11-03T09:53:10;100471.22;;;13.49;73.89
62051;BME280;48008;51.204;6.766;2022-11-03T09:55:38;100456.91;;;13.50;73.83
62051;BME280;48008;51.204;6.766;2022-11-03T09:58:14;100461.81;;;13.61;73.31
62051;BME280;48008;51.204;6.766;2022-11-03T10:00:41;100454.63;;;13.62;72.90
62051;BME280;48008;51.204;6.766;2022-11-03T10:03:10;100448.59;;;13.68;72.33
62051;BME280;48008;51.204;6.766;2022-11-03T10:05:38;100442.88;;;13.71;72.04
62051;BME280;48008;51.204;6.766;2022-11-03T10:08:13;100430.19;;;13.73;71.56
62051;BME280;48008;51.204;6.766;2022-11-03T10:10:43;100429.31;;;13.81;71.35
62051;BME280;48008;51.204;6.766;2022-11-03T10:13:16;100422.47;;;13.63;71.81
62051;BME280;48008;51.204;6.766;2022-11-03T10:15:47;100418.97;;;13.63;70.49
62051;BME280;48008;51.204;6.766;2022-11-03T10:18:14;100433.06;;;13.72;70.36
62051;BME280;48008;51.204;6.766;2022-11-03T10:20:41;100429.00;;;13.76;69.78
62051;BME280;48008;51.204;6.766;2022-11-03T10:23:08;100425.25;;;13.85;69.38
62051;BME280;48008;51.204;6.766;2022-11-03T10:25:39;100425.44;;;13.83;69.29
62051;BME280;48008;51.204;6.766;2022-11-03T10:28:23;100427.34;;;13.90;69.24
62051;BME280;48008;51.204;6.766;2022-11-03T10:30:55;100429.66;;;13.93;69.63
62051;BME280;48008;51.204;6.766;2022-11-03T10:33:37;100410.75;;;14.02;68.86
62051;BME280;48008;51.204;6.766;2022-11-03T10:38:50;100396.34;;;14.18;68.63
62051;BME280;48008;51.204;6.766;2022-11-03T10:41:19;100392.88;;;14.18;68.95
62051;BME280;48008;51.204;6.766;2022-11-03T10:46:39;100386.31;;;14.20;66.67
62051;BME280;48008;51.204;6.766;2022-11-03T10:49:22;100362.53;;;14.19;67.53
62051;BME280;48008;51.204;6.766;2022-11-03T10:51:52;100362.25;;;14.14;66.88
62051;BME280;48008;51.204;6.766;2022-11-03T10:54:21;100350.56;;;14.15;67.39
62051;BME280;48008;51.204;6.766;2022-11-03T10:56:50;100335.19;;;14.17;67.09
62051;BME280;48008;51.204;6.766;2022-11-03T10:59:21;100324.97;;;14.20;67.58
62051;BME280;48008;51.204;6.766;2022-11-03T11:01:49;100324.03;;;14.28;66.32
62051;BME280;48008;51.204;6.766;2022-11-03T11:04:18;100310.19;;;14.39;66.59
62051;BME280;48008;51.204;6.766;2022-11-03T11:06:45;100318.72;;;14.28;66.05
62051;BME280;48008;51.204;6.766;2022-11-03T11:09:21;100318.22;;;14.39;65.72
62051;BME280;48008;51.204;6.766;2022-11-03T11:12:24;100323.84;;;14.66;65.02
62051;BME280;48008;51.204;6.766;2022-11-03T11:20:25;100314.06;;;15.02;63.30
62051;BME280;48008;51.204;6.766;2022-11-03T11:22:54;100310.34;;;14.96;63.13
62051;BME280;48008;51.204;6.766;2022-11-03T11:26:12;100307.72;;;15.03;63.36
62051;BME280;48008;51.204;6.766;2022-11-03T11:28:27;100315.31;;;14.77;64.02
62051;BME280;48008;51.204;6.766;2022-11-03T11:30:55;100304.31;;;14.87;64.00
62051;BME280;48008;51.204;6.766;2022-11-03T11:33:23;100319.53;;;14.93;64.29
62051;BME280;48008;51.204;6.766;2022-11-03T11:41:17;100310.03;;;14.84;65.46
62051;BME280;48008;51.204;6.766;2022-11-03T11:43:46;100295.13;;;14.53;65.49
62051;BME280;48008;51.204;6.766;2022-11-03T11:46:37;100287.09;;;14.47;66.23
62051;BME280;48008;51.204;6.766;2022-11-03T11:51:45;100241.38;;;14.35;66.37
62051;BME280;48008;51.204;6.766;2022-11-03T11:54:16;100250.25;;;14.35;66.78
62051;BME280;48008;51.204;6.766;2022-11-03T11:56:46;100244.47;;;14.32;66.98
62051;BME280;48008;51.204;6.766;2022-11-03T11:59:16;100228.38;;;14.25;67.24
62051;BME280;48008;51.204;6.766;2022-11-03T12:01:51;100237.53;;;14.16;67.33
62051;BME280;48008;51.204;6.766;2022-11-03T12:04:21;100225.13;;;14.08;67.82
62051;BME280;48008;51.204;6.766;2022-11-03T12:06:49;100210.28;;;13.99;68.31
62051;BME280;48008;51.204;6.766;2022-11-03T12:09:21;100203.84;;;13.93;68.31
62051;BME280;48008;51.204;6.766;2022-11-03T12:11:51;100185.13;;;13.87;68.65
62051;BME280;48008;51.204;6.766;2022-11-03T12:14:37;100189.13;;;13.97;68.32
62051;BME280;48008;51.204;6.766;2022-11-03T12:19:53;100178.13;;;14.07;67.05
62051;BME280;48008;51.204;6.766;2022-11-03T12:24:58;100158.00;;;14.26;66.98
62051;BME280;48008;51.204;6.766;2022-11-03T12:30:05;100147.88;;;14.43;66.05
62051;BME280;48008;51.204;6.766;2022-11-03T12:32:34;100135.09;;;14.38;66.25
62051;BME280;48008;51.204;6.766;2022-11-03T12:35:02;100127.69;;;14.34;66.46
62051;BME280;48008;51.204;6.766;2022-11-03T12:37:29;100138.38;;;14.34;66.22
62051;BME280;48008;51.204;6.766;2022-11-03T12:39:55;100119.25;;;14.30;65.93
62051;BME280;48008;51.204;6.766;2022-11-03T12:42:22;100111.56;;;14.20;66.48
62051;BME280;48008;51.204;6.766;2022-11-03T12:44:50;100110.00;;;14.26;67.23
62051;BME280;48008;51.204;6.766;2022-11-03T12:47:18;100098.81;;;14.16;66.58
62051;BME280;48008;51.204;6.766;2022-11-03T12:49:46;100099.81;;;14.15;66.68
62051;BME280;48008;51.204;6.766;2022-11-03T12:52:13;100096.34;;;14.14;67.33
62051;BME280;48008;51.204;6.766;2022-11-03T12:54:40;100100.16;;;14.05;67.73
62051;BME280;48008;51.204;6.766;2022-11-03T12:57:08;100090.06;;;14.00;67.96
62051;BME280;48008;51.204;6.766;2022-11-03T12:59:34;100085.56;;;14.01;68.28
62051;BME280;48008;51.204;6.766;2022-11-03T13:02:01;100070.72;;;13.92;68.06
62051;BME280;48008;51.204;6.766;2022-11-03T13:04:28;100065.06;;;13.80;68.22
62051;BME280;48008;51.204;6.766;2022-11-03T13:06:55;100059.38;;;13.83;69.03
62051;BME280;48008;51.204;6.766;2022-11-03T13:09:22;100062.50;;;13.93;68.68
62051;BME280;48008;51.204;6.766;2022-11-03T13:11:48;100057.84;;;13.95;67.73
62051;BME280;48008;51.204;6.766;2022-11-03T13:14:35;100049.16;;;13.87;68.19
62051;BME280;48008;51.204;6.766;2022-11-03T13:17:02;100050.34;;;13.84;67.79
62051;BME280;48008;51.204;6.766;2022-11-03T13:19:29;100029.59;;;13.79;68.31
62051;BME280;48008;51.204;6.766;2022-11-03T13:21:56;100021.88;;;13.85;67.78
62051;BME280;48008;51.204;6.766;2022-11-03T13:24:23;100014.06;;;13.83;67.36
62051;BME280;48008;51.204;6.766;2022-11-03T13:26:50;100019.09;;;13.99;67.58
62051;BME280;48008;51.204;6.766;2022-11-03T13:29:17;100002.72;;;14.02;66.43
62051;BME280;48008;51.204;6.766;2022-11-03T13:31:44;99991.84;;;14.04;66.59
62051;BME280;48008;51.204;6.766;2022-11-03T13:34:11;99983.81;;;13.97;67.01
62051;BME280;48008;51.204;6.766;2022-11-03T13:36:37;99985.63;;;13.97;67.25
62051;BME280;48008;51.204;6.766;2022-11-03T13:39:05;99967.31;;;13.87;67.40
62051;BME280;48008;51.204;6.766;2022-11-03T13:41:33;99949.25;;;13.82;67.73